Terminal Aerodrome Forecast
Issued by NWS Caribou, ME

Home | Current Version | Previous Version | Text Only | Print | Product List | Glossary On
Versions: 1 2 3 4 5 6 7 8 9 10 11 12 13 14 15 16 17 18 19 20 21 22 23 24 25 26 27
000
FTUS41 KCAR 311700
TAFCAR
TAF
KCAR 311722Z 3118/0118 20009KT P6SM SCT250
     FM312000 20009KT P6SM VCTS BKN050CB
     FM010300 21007KT P6SM BKN050
     FM010500 20005KT P6SM SCT250
     FM011000 19004KT 1/2SM FG SCT025
     FM011200 19004KT P6SM SCT020=

USA.gov is the U.S. government's official web portal to all federal, state and local government web resources and services.